SVA1421 OEMA-OEJN
Flight info
| Callsign | SVA1421 |
|---|---|
| Flight time | 0h 30m |
| Altitude | 26000 |
| Route | SISUD B544 RBG/N0447F250 B544 NOMDA |
| Aircraft | B77W/H-SDE1E2E3FGHIJ2J3J4J5M1RWXY/LB1D1 |
Departure
| Time | 2026-04-29 10:59 |
|---|---|
| Airport | Prince Mohammad Bin Abdulaziz Airport (OEMA) |
Arrival
| Time | 2026-04-29 11:30 |
|---|---|
| Airport | King Abdulaziz International Airport (OEJN) |
| Time | Latitude | Longitude | Altitude | Speed | Heading |
|---|---|---|---|---|---|
| 2026-04-29 10:43 | 24.55182 | 39.71335 | 2110 ft | 0 kts | 79° |
| 2026-04-29 10:51 | 24.55178 | 39.71315 | 2110 ft | 4 kts | 72° |
| 2026-04-29 10:51 | 24.55169 | 39.71288 | 2110 ft | 4 kts | 61° |
| 2026-04-29 10:51 | 24.55154 | 39.71265 | 2110 ft | 4 kts | 40° |
| 2026-04-29 10:52 | 24.55132 | 39.71252 | 2110 ft | 3 kts | 355° |
| 2026-04-29 10:52 | 24.55128 | 39.71252 | 2110 ft | 0 kts | 350° |
| 2026-04-29 10:54 | 24.55146 | 39.71249 | 2110 ft | 8 kts | 351° |
| 2026-04-29 10:54 | 24.55215 | 39.71229 | 2110 ft | 11 kts | 326° |
| 2026-04-29 10:55 | 24.55236 | 39.71153 | 2110 ft | 11 kts | 266° |
| 2026-04-29 10:55 | 24.55234 | 39.71061 | 2111 ft | 13 kts | 296° |
| 2026-04-29 10:55 | 24.55328 | 39.71013 | 2111 ft | 22 kts | 347° |
| 2026-04-29 10:55 | 24.55509 | 39.70976 | 2111 ft | 28 kts | 349° |
| 2026-04-29 10:56 | 24.55697 | 39.70936 | 2111 ft | 28 kts | 349° |
| 2026-04-29 10:56 | 24.55886 | 39.70896 | 2112 ft | 28 kts | 349° |
| 2026-04-29 10:56 | 24.56074 | 39.70856 | 2112 ft | 28 kts | 349° |
| 2026-04-29 10:56 | 24.56263 | 39.70816 | 2113 ft | 28 kts | 349° |
| 2026-04-29 10:57 | 24.56452 | 39.70777 | 2113 ft | 28 kts | 350° |
| 2026-04-29 10:57 | 24.56640 | 39.70738 | 2112 ft | 28 kts | 349° |
| 2026-04-29 10:57 | 24.56828 | 39.70698 | 2111 ft | 28 kts | 349° |
| 2026-04-29 10:57 | 24.57017 | 39.70658 | 2111 ft | 28 kts | 349° |
| 2026-04-29 10:58 | 24.57205 | 39.70619 | 2111 ft | 28 kts | 349° |
| 2026-04-29 10:58 | 24.57394 | 39.70578 | 2111 ft | 28 kts | 349° |
| 2026-04-29 10:58 | 24.57581 | 39.70540 | 2112 ft | 21 kts | 348° |
| 2026-04-29 10:58 | 24.57646 | 39.70450 | 2114 ft | 17 kts | 269° |
| 2026-04-29 10:59 | 24.57592 | 39.70343 | 2116 ft | 25 kts | 189° |
| 2026-04-29 10:59 | 24.57257 | 39.70416 | 2115 ft | 87 kts | 168° |
| 2026-04-29 10:59 | 24.56294 | 39.70624 | 2144 ft | 188 kts | 168° |
| 2026-04-29 10:59 | 24.54974 | 39.70912 | 3246 ft | 194 kts | 168° |
| 2026-04-29 11:00 | 24.53623 | 39.71196 | 4352 ft | 207 kts | 168° |
| 2026-04-29 11:00 | 24.52094 | 39.71522 | 4818 ft | 243 kts | 168° |
| 2026-04-29 11:00 | 24.50313 | 39.71895 | 5393 ft | 273 kts | 168° |
| 2026-04-29 11:00 | 24.48435 | 39.72288 | 6602 ft | 281 kts | 170° |
| 2026-04-29 11:01 | 24.46406 | 39.72709 | 7203 ft | 314 kts | 170° |
| 2026-04-29 11:01 | 24.44163 | 39.73178 | 7852 ft | 337 kts | 170° |
| 2026-04-29 11:01 | 24.41834 | 39.73664 | 8987 ft | 343 kts | 170° |
| 2026-04-29 11:01 | 24.39466 | 39.74160 | 10189 ft | 347 kts | 171° |
| 2026-04-29 11:02 | 24.37081 | 39.74657 | 11387 ft | 352 kts | 172° |
| 2026-04-29 11:02 | 24.34659 | 39.74950 | 12451 ft | 352 kts | 185° |
| 2026-04-29 11:02 | 24.32272 | 39.74497 | 13622 ft | 353 kts | 200° |
| 2026-04-29 11:02 | 24.30020 | 39.73430 | 14892 ft | 354 kts | 208° |
| 2026-04-29 11:03 | 24.27814 | 39.72185 | 16137 ft | 359 kts | 210° |
| 2026-04-29 11:03 | 24.25595 | 39.70899 | 17331 ft | 365 kts | 211° |
| 2026-04-29 11:03 | 24.23303 | 39.69571 | 18201 ft | 379 kts | 211° |
| 2026-04-29 11:03 | 24.20933 | 39.68209 | 19130 ft | 389 kts | 210° |
| 2026-04-29 11:04 | 24.18512 | 39.66834 | 20154 ft | 395 kts | 210° |
| 2026-04-29 11:04 | 24.16058 | 39.65453 | 21229 ft | 398 kts | 210° |
| 2026-04-29 11:04 | 24.13552 | 39.64049 | 21509 ft | 409 kts | 211° |
| 2026-04-29 11:04 | 24.11001 | 39.62625 | 22374 ft | 412 kts | 211° |
| 2026-04-29 11:05 | 24.08474 | 39.61222 | 23768 ft | 401 kts | 211° |
| 2026-04-29 11:05 | 24.06011 | 39.59857 | 25024 ft | 397 kts | 211° |
| 2026-04-29 11:05 | 24.03534 | 39.58479 | 25748 ft | 398 kts | 212° |
| 2026-04-29 11:05 | 24.01066 | 39.57106 | 25967 ft | 399 kts | 212° |
| 2026-04-29 11:06 | 23.98583 | 39.55727 | 25956 ft | 401 kts | 212° |
| 2026-04-29 11:06 | 23.96092 | 39.54343 | 25945 ft | 402 kts | 212° |
| 2026-04-29 11:06 | 23.93595 | 39.52962 | 25947 ft | 402 kts | 212° |
| 2026-04-29 11:06 | 23.91105 | 39.51576 | 25952 ft | 401 kts | 212° |
| 2026-04-29 11:07 | 23.88620 | 39.50191 | 25952 ft | 401 kts | 212° |
| 2026-04-29 11:07 | 23.86128 | 39.48806 | 25956 ft | 401 kts | 211° |
| 2026-04-29 11:07 | 23.83643 | 39.47429 | 25944 ft | 401 kts | 212° |
| 2026-04-29 11:07 | 23.81152 | 39.46050 | 25946 ft | 401 kts | 212° |
| 2026-04-29 11:08 | 23.78664 | 39.44674 | 25945 ft | 401 kts | 212° |
| 2026-04-29 11:08 | 23.76172 | 39.43295 | 25949 ft | 402 kts | 212° |
| 2026-04-29 11:08 | 23.73611 | 39.42032 | 25924 ft | 406 kts | 206° |
| 2026-04-29 11:08 | 23.70903 | 39.41102 | 25929 ft | 409 kts | 202° |
| 2026-04-29 11:09 | 23.68157 | 39.40263 | 25930 ft | 410 kts | 202° |
| 2026-04-29 11:09 | 23.65417 | 39.39385 | 25921 ft | 410 kts | 203° |
| 2026-04-29 11:09 | 23.62687 | 39.38471 | 25926 ft | 411 kts | 203° |
| 2026-04-29 11:09 | 23.59948 | 39.37532 | 25917 ft | 413 kts | 203° |
| 2026-04-29 11:10 | 23.57207 | 39.36577 | 25919 ft | 413 kts | 204° |
| 2026-04-29 11:10 | 23.54467 | 39.35627 | 25910 ft | 413 kts | 204° |
| 2026-04-29 11:10 | 23.51728 | 39.34677 | 25918 ft | 413 kts | 204° |
| 2026-04-29 11:10 | 23.49914 | 39.34047 | 25917 ft | 413 kts | 204° |
| 2026-04-29 11:11 | 23.46248 | 39.32774 | 25915 ft | 413 kts | 204° |
| 2026-04-29 11:11 | 23.44436 | 39.32147 | 25916 ft | 413 kts | 204° |
| 2026-04-29 11:11 | 23.41700 | 39.31199 | 25916 ft | 413 kts | 203° |
| 2026-04-29 11:11 | 23.38957 | 39.30250 | 25917 ft | 413 kts | 204° |
| 2026-04-29 11:12 | 23.36218 | 39.29304 | 25918 ft | 413 kts | 203° |
| 2026-04-29 11:12 | 23.33482 | 39.28360 | 25916 ft | 413 kts | 203° |
| 2026-04-29 11:12 | 23.30743 | 39.27414 | 25915 ft | 413 kts | 203° |
| 2026-04-29 11:12 | 23.28002 | 39.26470 | 25918 ft | 413 kts | 203° |
| 2026-04-29 11:13 | 23.25258 | 39.25525 | 25908 ft | 414 kts | 204° |
| 2026-04-29 11:13 | 23.22518 | 39.24580 | 25912 ft | 413 kts | 204° |
| 2026-04-29 11:13 | 23.19776 | 39.23636 | 25919 ft | 413 kts | 204° |
| 2026-04-29 11:13 | 23.17032 | 39.22689 | 25922 ft | 414 kts | 204° |
| 2026-04-29 11:14 | 23.14282 | 39.21741 | 25924 ft | 415 kts | 204° |
| 2026-04-29 11:14 | 23.11523 | 39.20791 | 25930 ft | 416 kts | 203° |
| 2026-04-29 11:14 | 23.08756 | 39.19839 | 25911 ft | 417 kts | 203° |
| 2026-04-29 11:14 | 23.05986 | 39.18887 | 25917 ft | 418 kts | 203° |
| 2026-04-29 11:15 | 23.03212 | 39.17934 | 25914 ft | 418 kts | 203° |
| 2026-04-29 11:15 | 23.00438 | 39.16982 | 25912 ft | 419 kts | 203° |
| 2026-04-29 11:15 | 22.97659 | 39.16030 | 25916 ft | 419 kts | 203° |
| 2026-04-29 11:15 | 22.94839 | 39.15058 | 25932 ft | 435 kts | 203° |
| 2026-04-29 11:16 | 22.91900 | 39.14043 | 25934 ft | 451 kts | 203° |
| 2026-04-29 11:16 | 22.88878 | 39.13007 | 25901 ft | 457 kts | 202° |
| 2026-04-29 11:16 | 22.85842 | 39.11972 | 25887 ft | 458 kts | 202° |
| 2026-04-29 11:16 | 22.82789 | 39.10976 | 25878 ft | 459 kts | 200° |
| 2026-04-29 11:17 | 22.79639 | 39.10277 | 25552 ft | 462 kts | 194° |
| 2026-04-29 11:17 | 22.76444 | 39.09866 | 24676 ft | 463 kts | 190° |
| 2026-04-29 11:17 | 22.73208 | 39.09766 | 23659 ft | 466 kts | 184° |
| 2026-04-29 11:17 | 22.69968 | 39.09894 | 22649 ft | 464 kts | 183° |
| 2026-04-29 11:18 | 22.66751 | 39.10032 | 21766 ft | 459 kts | 183° |
| 2026-04-29 11:18 | 22.63588 | 39.10160 | 20998 ft | 451 kts | 183° |
| 2026-04-29 11:18 | 22.60472 | 39.10272 | 20247 ft | 444 kts | 183° |
| 2026-04-29 11:18 | 22.57415 | 39.10373 | 19470 ft | 437 kts | 183° |
| 2026-04-29 11:19 | 22.54396 | 39.10469 | 18857 ft | 429 kts | 183° |
| 2026-04-29 11:19 | 22.51452 | 39.10567 | 18534 ft | 419 kts | 183° |
| 2026-04-29 11:19 | 22.48521 | 39.10623 | 18279 ft | 424 kts | 184° |
| 2026-04-29 11:19 | 22.45561 | 39.10634 | 18157 ft | 426 kts | 185° |
| 2026-04-29 11:20 | 22.42592 | 39.10634 | 18012 ft | 426 kts | 185° |
| 2026-04-29 11:20 | 22.39630 | 39.10637 | 17904 ft | 425 kts | 185° |
| 2026-04-29 11:20 | 22.36676 | 39.10644 | 17786 ft | 424 kts | 184° |
| 2026-04-29 11:20 | 22.33731 | 39.10657 | 17645 ft | 423 kts | 184° |
| 2026-04-29 11:21 | 22.30790 | 39.10670 | 17528 ft | 422 kts | 184° |
| 2026-04-29 11:21 | 22.27853 | 39.10686 | 17400 ft | 422 kts | 184° |
| 2026-04-29 11:21 | 22.24925 | 39.10700 | 17268 ft | 421 kts | 184° |
| 2026-04-29 11:21 | 22.21999 | 39.10715 | 17150 ft | 420 kts | 184° |
| 2026-04-29 11:22 | 22.18931 | 39.10731 | 16871 ft | 422 kts | 184° |
| 2026-04-29 11:22 | 22.13048 | 39.10761 | 16345 ft | 415 kts | 184° |
| 2026-04-29 11:22 | 22.06388 | 39.11866 | 15116 ft | 402 kts | 163° |
| 2026-04-29 11:22 | 21.96323 | 39.16065 | 12906 ft | 377 kts | 164° |
| 2026-04-29 11:23 | 21.86710 | 39.19834 | 10647 ft | 362 kts | 163° |
| 2026-04-29 11:23 | 21.84233 | 39.20812 | 10078 ft | 359 kts | 162° |
| 2026-04-29 11:23 | 21.81899 | 39.21733 | 9478 ft | 357 kts | 161° |
| 2026-04-29 11:23 | 21.79564 | 39.22652 | 8853 ft | 357 kts | 161° |
| 2026-04-29 11:24 | 21.77233 | 39.23567 | 8232 ft | 356 kts | 161° |
| 2026-04-29 11:24 | 21.74914 | 39.24477 | 7624 ft | 354 kts | 161° |
| 2026-04-29 11:24 | 21.72604 | 39.25382 | 7185 ft | 349 kts | 161° |
| 2026-04-29 11:24 | 21.70400 | 39.26249 | 6972 ft | 321 kts | 161° |
| 2026-04-29 11:25 | 21.68380 | 39.27051 | 6294 ft | 301 kts | 161° |
| 2026-04-29 11:25 | 21.66455 | 39.27813 | 5558 ft | 288 kts | 161° |
| 2026-04-29 11:25 | 21.64604 | 39.28519 | 4797 ft | 277 kts | 166° |
| 2026-04-29 11:25 | 21.62761 | 39.28540 | 4017 ft | 257 kts | 199° |
| 2026-04-29 11:26 | 21.60775 | 39.26011 | 2682 ft | 211 kts | 250° |
| 2026-04-29 11:26 | 21.60204 | 39.24611 | 2103 ft | 195 kts | 247° |
| 2026-04-29 11:26 | 21.59629 | 39.23399 | 1874 ft | 171 kts | 247° |
| 2026-04-29 11:27 | 21.59321 | 39.22252 | 1709 ft | 159 kts | 281° |
| 2026-04-29 11:27 | 21.59781 | 39.21247 | 1708 ft | 145 kts | 309° |
| 2026-04-29 11:27 | 21.60456 | 39.20504 | 1678 ft | 135 kts | 330° |
| 2026-04-29 11:27 | 21.61367 | 39.20150 | 1253 ft | 141 kts | 340° |
| 2026-04-29 11:28 | 21.62224 | 39.19805 | 985 ft | 122 kts | 338° |
| 2026-04-29 11:28 | 21.63030 | 39.19481 | 750 ft | 125 kts | 338° |
| 2026-04-29 11:28 | 21.63858 | 39.19152 | 652 ft | 129 kts | 339° |
| 2026-04-29 11:28 | 21.64707 | 39.18813 | 502 ft | 131 kts | 339° |
| 2026-04-29 11:29 | 21.65566 | 39.18476 | 299 ft | 130 kts | 339° |
| 2026-04-29 11:29 | 21.66415 | 39.18141 | 124 ft | 132 kts | 339° |
| 2026-04-29 11:29 | 21.67269 | 39.17802 | 40 ft | 123 kts | 340° |
| 2026-04-29 11:29 | 21.67937 | 39.17543 | 39 ft | 73 kts | 340° |
| 2026-04-29 11:30 | 21.68268 | 39.17384 | 33 ft | 34 kts | 317° |
| 2026-04-29 11:30 | 21.68424 | 39.17195 | 31 ft | 33 kts | 309° |
| 2026-04-29 11:30 | 21.68493 | 39.17038 | 32 ft | 17 kts | 246° |
| 2026-04-29 11:30 | 21.68360 | 39.17037 | 35 ft | 30 kts | 161° |
| 2026-04-29 11:31 | 21.68156 | 39.17117 | 35 ft | 31 kts | 159° |
| 2026-04-29 11:31 | 21.67951 | 39.17199 | 35 ft | 32 kts | 160° |
| 2026-04-29 11:31 | 21.67743 | 39.17281 | 35 ft | 32 kts | 160° |
| 2026-04-29 11:31 | 21.67531 | 39.17365 | 35 ft | 33 kts | 160° |
| 2026-04-29 11:32 | 21.67319 | 39.17449 | 35 ft | 33 kts | 160° |
| 2026-04-29 11:32 | 21.67190 | 39.17434 | 35 ft | 20 kts | 240° |
| 2026-04-29 11:32 | 21.67103 | 39.17325 | 35 ft | 17 kts | 220° |
| 2026-04-29 11:32 | 21.67016 | 39.17273 | 35 ft | 5 kts | 201° |
| 2026-04-29 11:33 | 21.67012 | 39.17271 | 35 ft | 0 kts | 201° |
| 2026-04-29 11:34 | 21.66995 | 39.17221 | 35 ft | 10 kts | 275° |
| 2026-04-29 11:34 | 21.67003 | 39.17184 | 35 ft | 3 kts | 284° |
| 2026-04-29 11:34 | 21.67007 | 39.17165 | 35 ft | 1 kts | 283° |
| 2026-04-29 11:34 | 21.67008 | 39.17161 | 35 ft | 0 kts | 283° |
| 2026-04-29 11:35 | 21.67008 | 39.17160 | 35 ft | 0 kts | 283° |